sensor_id;sensor_type;location;lat;lon;timestamp;P1;durP1;ratioP1;P2;durP2;ratioP2
71046;SDS011;58703;48.978;8.982;2023-03-31T00:01:39;4.22;;;2.10;;
71046;SDS011;58703;48.978;8.982;2023-03-31T00:04:08;6.25;;;2.80;;
71046;SDS011;58703;48.978;8.982;2023-03-31T00:06:39;6.55;;;3.00;;
71046;SDS011;58703;48.978;8.982;2023-03-31T00:09:08;5.70;;;2.50;;
71046;SDS011;58703;48.978;8.982;2023-03-31T00:11:35;5.75;;;3.65;;
71046;SDS011;58703;48.978;8.982;2023-03-31T00:14:02;7.70;;;3.00;;
71046;SDS011;58703;48.978;8.982;2023-03-31T00:16:32;6.68;;;2.72;;
71046;SDS011;58703;48.978;8.982;2023-03-31T00:18:58;3.58;;;2.90;;
71046;SDS011;58703;48.978;8.982;2023-03-31T00:21:27;4.87;;;2.60;;
71046;SDS011;58703;48.978;8.982;2023-03-31T00:24:00;4.85;;;2.40;;
71046;SDS011;58703;48.978;8.982;2023-03-31T00:26:36;5.07;;;2.90;;
71046;SDS011;58703;48.978;8.982;2023-03-31T00:29:03;4.80;;;2.40;;
71046;SDS011;58703;48.978;8.982;2023-03-31T00:31:31;5.38;;;2.70;;
71046;SDS011;58703;48.978;8.982;2023-03-31T00:33:57;4.27;;;2.13;;
71046;SDS011;58703;48.978;8.982;2023-03-31T00:36:24;6.78;;;1.98;;
71046;SDS011;58703;48.978;8.982;2023-03-31T00:38:59;4.95;;;2.25;;
71046;SDS011;58703;48.978;8.982;2023-03-31T00:41:28;9.97;;;2.50;;
71046;SDS011;58703;48.978;8.982;2023-03-31T00:46:43;5.38;;;2.65;;
71046;SDS011;58703;48.978;8.982;2023-03-31T00:49:20;6.10;;;2.70;;
71046;SDS011;58703;48.978;8.982;2023-03-31T00:52:03;3.47;;;1.98;;
71046;SDS011;58703;48.978;8.982;2023-03-31T00:54:38;4.53;;;3.00;;
71046;SDS011;58703;48.978;8.982;2023-03-31T00:57:07;6.90;;;2.20;;
71046;SDS011;58703;48.978;8.982;2023-03-31T00:59:38;5.80;;;2.72;;
71046;SDS011;58703;48.978;8.982;2023-03-31T01:02:07;5.60;;;2.75;;
71046;SDS011;58703;48.978;8.982;2023-03-31T01:04:34;3.45;;;2.40;;
71046;SDS011;58703;48.978;8.982;2023-03-31T01:07:10;4.93;;;2.33;;
71046;SDS011;58703;48.978;8.982;2023-03-31T01:09:45;5.95;;;2.60;;
71046;SDS011;58703;48.978;8.982;2023-03-31T01:12:14;7.13;;;3.38;;
71046;SDS011;58703;48.978;8.982;2023-03-31T01:14:41;6.70;;;3.75;;
71046;SDS011;58703;48.978;8.982;2023-03-31T01:17:07;52.43;;;22.87;;
71046;SDS011;58703;48.978;8.982;2023-03-31T01:45:25;6.07;;;1.15;;
71046;SDS011;58703;48.978;8.982;2023-03-31T01:48:06;3.47;;;1.20;;
71046;SDS011;58703;48.978;8.982;2023-03-31T01:53:10;7.80;;;1.70;;
71046;SDS011;58703;48.978;8.982;2023-03-31T01:58:50;7.70;;;1.80;;
71046;SDS011;58703;48.978;8.982;2023-03-31T02:01:23;4.75;;;1.20;;
71046;SDS011;58703;48.978;8.982;2023-03-31T02:03:57;5.57;;;1.27;;
71046;SDS011;58703;48.978;8.982;2023-03-31T02:06:39;4.53;;;0.67;;
71046;SDS011;58703;48.978;8.982;2023-03-31T02:09:08;4.10;;;0.68;;
71046;SDS011;58703;48.978;8.982;2023-03-31T02:11:38;7.63;;;0.82;;
71046;SDS011;58703;48.978;8.982;2023-03-31T02:14:07;2.92;;;0.77;;
71046;SDS011;58703;48.978;8.982;2023-03-31T02:16:37;4.13;;;1.13;;
71046;SDS011;58703;48.978;8.982;2023-03-31T02:19:05;5.33;;;0.60;;
71046;SDS011;58703;48.978;8.982;2023-03-31T02:21:35;3.90;;;0.93;;
71046;SDS011;58703;48.978;8.982;2023-03-31T02:24:06;3.40;;;0.93;;
71046;SDS011;58703;48.978;8.982;2023-03-31T02:26:36;5.15;;;0.60;;
71046;SDS011;58703;48.978;8.982;2023-03-31T02:29:09;4.00;;;0.90;;
71046;SDS011;58703;48.978;8.982;2023-03-31T02:34:27;3.83;;;0.80;;
71046;SDS011;58703;48.978;8.982;2023-03-31T02:36:53;4.30;;;0.73;;
71046;SDS011;58703;48.978;8.982;2023-03-31T02:39:27;4.78;;;1.17;;
71046;SDS011;58703;48.978;8.982;2023-03-31T02:41:57;3.67;;;0.50;;
71046;SDS011;58703;48.978;8.982;2023-03-31T02:44:22;5.18;;;0.85;;
71046;SDS011;58703;48.978;8.982;2023-03-31T02:46:50;2.95;;;0.85;;
71046;SDS011;58703;48.978;8.982;2023-03-31T02:49:16;3.23;;;0.80;;
71046;SDS011;58703;48.978;8.982;2023-03-31T02:58:06;4.78;;;0.82;;
71046;SDS011;58703;48.978;8.982;2023-03-31T03:06:31;4.05;;;1.45;;
71046;SDS011;58703;48.978;8.982;2023-03-31T03:12:01;4.68;;;1.55;;
71046;SDS011;58703;48.978;8.982;2023-03-31T03:17:07;6.67;;;1.40;;
71046;SDS011;58703;48.978;8.982;2023-03-31T03:19:37;4.95;;;0.93;;
71046;SDS011;58703;48.978;8.982;2023-03-31T03:22:05;3.33;;;1.30;;
71046;SDS011;58703;48.978;8.982;2023-03-31T03:24:31;4.00;;;0.90;;
71046;SDS011;58703;48.978;8.982;2023-03-31T03:26:58;3.63;;;1.25;;
71046;SDS011;58703;48.978;8.982;2023-03-31T03:29:24;5.53;;;1.52;;
71046;SDS011;58703;48.978;8.982;2023-03-31T03:31:51;6.47;;;1.17;;
71046;SDS011;58703;48.978;8.982;2023-03-31T03:34:18;6.07;;;1.55;;
71046;SDS011;58703;48.978;8.982;2023-03-31T03:36:44;2.77;;;0.87;;
71046;SDS011;58703;48.978;8.982;2023-03-31T03:39:11;3.80;;;0.90;;
71046;SDS011;58703;48.978;8.982;2023-03-31T03:41:36;6.10;;;1.60;;
71046;SDS011;58703;48.978;8.982;2023-03-31T03:44:04;3.13;;;1.83;;
71046;SDS011;58703;48.978;8.982;2023-03-31T03:46:29;4.13;;;1.20;;
71046;SDS011;58703;48.978;8.982;2023-03-31T03:48:55;6.18;;;2.05;;
71046;SDS011;58703;48.978;8.982;2023-03-31T03:51:21;3.50;;;1.50;;
71046;SDS011;58703;48.978;8.982;2023-03-31T03:53:47;4.72;;;1.25;;
71046;SDS011;58703;48.978;8.982;2023-03-31T03:56:12;2.40;;;1.40;;
71046;SDS011;58703;48.978;8.982;2023-03-31T03:58:38;3.70;;;1.38;;
71046;SDS011;58703;48.978;8.982;2023-03-31T04:01:04;3.07;;;1.00;;
71046;SDS011;58703;48.978;8.982;2023-03-31T04:03:29;7.07;;;2.70;;
71046;SDS011;58703;48.978;8.982;2023-03-31T04:05:56;8.00;;;2.20;;
71046;SDS011;58703;48.978;8.982;2023-03-31T04:08:22;4.57;;;1.92;;
71046;SDS011;58703;48.978;8.982;2023-03-31T04:10:48;5.63;;;1.83;;
71046;SDS011;58703;48.978;8.982;2023-03-31T04:13:15;4.28;;;2.30;;
71046;SDS011;58703;48.978;8.982;2023-03-31T04:15:42;4.70;;;2.07;;
71046;SDS011;58703;48.978;8.982;2023-03-31T04:18:08;4.20;;;1.83;;
71046;SDS011;58703;48.978;8.982;2023-03-31T04:20:48;4.75;;;2.45;;
71046;SDS011;58703;48.978;8.982;2023-03-31T04:23:33;5.63;;;2.38;;
71046;SDS011;58703;48.978;8.982;2023-03-31T04:26:02;5.40;;;1.85;;
71046;SDS011;58703;48.978;8.982;2023-03-31T04:28:33;5.90;;;2.20;;
71046;SDS011;58703;48.978;8.982;2023-03-31T04:31:04;5.55;;;2.38;;
71046;SDS011;58703;48.978;8.982;2023-03-31T04:33:35;8.40;;;2.80;;
71046;SDS011;58703;48.978;8.982;2023-03-31T04:36:06;7.30;;;2.92;;
71046;SDS011;58703;48.978;8.982;2023-03-31T04:38:47;4.53;;;2.60;;
71046;SDS011;58703;48.978;8.982;2023-03-31T04:41:20;4.47;;;2.00;;
71046;SDS011;58703;48.978;8.982;2023-03-31T04:43:46;6.70;;;1.75;;
71046;SDS011;58703;48.978;8.982;2023-03-31T04:46:12;8.05;;;2.22;;
71046;SDS011;58703;48.978;8.982;2023-03-31T04:48:38;4.43;;;2.00;;
71046;SDS011;58703;48.978;8.982;2023-03-31T04:51:04;8.90;;;2.45;;
71046;SDS011;58703;48.978;8.982;2023-03-31T04:53:31;3.70;;;2.35;;
71046;SDS011;58703;48.978;8.982;2023-03-31T04:55:57;5.07;;;1.70;;
71046;SDS011;58703;48.978;8.982;2023-03-31T04:58:23;5.20;;;1.98;;
71046;SDS011;58703;48.978;8.982;2023-03-31T05:00:50;6.32;;;2.38;;
71046;SDS011;58703;48.978;8.982;2023-03-31T05:03:16;3.40;;;1.40;;
71046;SDS011;58703;48.978;8.982;2023-03-31T05:05:41;8.25;;;2.45;;
71046;SDS011;58703;48.978;8.982;2023-03-31T05:08:08;6.87;;;2.13;;
71046;SDS011;58703;48.978;8.982;2023-03-31T05:10:34;6.30;;;2.78;;
71046;SDS011;58703;48.978;8.982;2023-03-31T05:13:00;6.07;;;2.10;;
71046;SDS011;58703;48.978;8.982;2023-03-31T05:15:25;4.83;;;2.17;;
71046;SDS011;58703;48.978;8.982;2023-03-31T05:17:51;4.50;;;1.97;;
71046;SDS011;58703;48.978;8.982;2023-03-31T05:20:17;5.55;;;2.85;;
71046;SDS011;58703;48.978;8.982;2023-03-31T05:22:44;3.83;;;2.42;;
71046;SDS011;58703;48.978;8.982;2023-03-31T05:25:12;10.10;;;2.47;;
71046;SDS011;58703;48.978;8.982;2023-03-31T05:27:43;5.25;;;1.83;;
71046;SDS011;58703;48.978;8.982;2023-03-31T05:30:13;7.53;;;2.55;;
71046;SDS011;58703;48.978;8.982;2023-03-31T05:32:39;6.28;;;2.63;;
71046;SDS011;58703;48.978;8.982;2023-03-31T05:35:04;4.33;;;1.90;;
71046;SDS011;58703;48.978;8.982;2023-03-31T05:37:31;6.40;;;2.53;;
71046;SDS011;58703;48.978;8.982;2023-03-31T05:39:58;6.47;;;2.80;;
71046;SDS011;58703;48.978;8.982;2023-03-31T05:42:24;8.37;;;2.03;;
71046;SDS011;58703;48.978;8.982;2023-03-31T05:44:51;14.18;;;10.00;;
71046;SDS011;58703;48.978;8.982;2023-03-31T05:47:17;8.10;;;3.88;;
71046;SDS011;58703;48.978;8.982;2023-03-31T05:49:43;6.73;;;2.70;;
71046;SDS011;58703;48.978;8.982;2023-03-31T05:52:08;7.28;;;2.90;;
71046;SDS011;58703;48.978;8.982;2023-03-31T05:54:35;5.63;;;2.95;;
71046;SDS011;58703;48.978;8.982;2023-03-31T05:57:02;9.63;;;4.20;;
71046;SDS011;58703;48.978;8.982;2023-03-31T05:59:27;9.82;;;4.00;;
71046;SDS011;58703;48.978;8.982;2023-03-31T06:01:55;8.70;;;4.27;;
71046;SDS011;58703;48.978;8.982;2023-03-31T06:04:21;7.28;;;3.60;;
71046;SDS011;58703;48.978;8.982;2023-03-31T06:06:49;12.65;;;4.13;;
71046;SDS011;58703;48.978;8.982;2023-03-31T06:09:16;8.30;;;4.43;;
71046;SDS011;58703;48.978;8.982;2023-03-31T06:11:44;11.60;;;6.25;;
71046;SDS011;58703;48.978;8.982;2023-03-31T06:14:12;9.87;;;6.47;;
71046;SDS011;58703;48.978;8.982;2023-03-31T06:16:38;14.20;;;8.40;;
71046;SDS011;58703;48.978;8.982;2023-03-31T06:19:06;15.65;;;8.82;;
71046;SDS011;58703;48.978;8.982;2023-03-31T06:21:32;11.07;;;7.78;;
71046;SDS011;58703;48.978;8.982;2023-03-31T06:24:00;13.05;;;6.38;;
71046;SDS011;58703;48.978;8.982;2023-03-31T06:26:26;14.73;;;5.43;;
71046;SDS011;58703;48.978;8.982;2023-03-31T06:28:54;19.95;;;10.20;;
71046;SDS011;58703;48.978;8.982;2023-03-31T06:31:22;18.70;;;10.88;;
71046;SDS011;58703;48.978;8.982;2023-03-31T06:33:50;15.07;;;8.10;;
71046;SDS011;58703;48.978;8.982;2023-03-31T06:36:17;8.50;;;4.47;;
71046;SDS011;58703;48.978;8.982;2023-03-31T06:38:44;14.03;;;4.30;;
71046;SDS011;58703;48.978;8.982;2023-03-31T06:41:14;7.63;;;3.70;;
71046;SDS011;58703;48.978;8.982;2023-03-31T06:43:42;10.63;;;4.03;;
71046;SDS011;58703;48.978;8.982;2023-03-31T06:46:08;7.97;;;3.97;;
71046;SDS011;58703;48.978;8.982;2023-03-31T06:48:36;11.55;;;4.93;;
71046;SDS011;58703;48.978;8.982;2023-03-31T06:51:03;11.07;;;4.57;;
71046;SDS011;58703;48.978;8.982;2023-03-31T06:53:31;11.45;;;5.03;;
71046;SDS011;58703;48.978;8.982;2023-03-31T06:55:58;10.70;;;4.18;;
71046;SDS011;58703;48.978;8.982;2023-03-31T06:58:25;10.02;;;4.07;;
71046;SDS011;58703;48.978;8.982;2023-03-31T07:00:51;10.70;;;4.07;;
71046;SDS011;58703;48.978;8.982;2023-03-31T07:03:18;10.83;;;4.87;;
71046;SDS011;58703;48.978;8.982;2023-03-31T07:05:53;12.55;;;4.97;;
71046;SDS011;58703;48.978;8.982;2023-03-31T07:08:21;14.48;;;5.45;;
71046;SDS011;58703;48.978;8.982;2023-03-31T07:10:49;10.82;;;4.50;;
71046;SDS011;58703;48.978;8.982;2023-03-31T07:13:20;8.40;;;4.88;;
71046;SDS011;58703;48.978;8.982;2023-03-31T07:15:47;10.17;;;5.10;;
71046;SDS011;58703;48.978;8.982;2023-03-31T07:18:14;11.82;;;4.53;;
71046;SDS011;58703;48.978;8.982;2023-03-31T07:20:41;14.55;;;4.50;;
71046;SDS011;58703;48.978;8.982;2023-03-31T07:23:08;14.68;;;4.18;;
71046;SDS011;58703;48.978;8.982;2023-03-31T07:25:36;11.23;;;4.43;;
71046;SDS011;58703;48.978;8.982;2023-03-31T07:28:03;9.27;;;4.23;;
71046;SDS011;58703;48.978;8.982;2023-03-31T07:30:32;8.65;;;4.53;;
71046;SDS011;58703;48.978;8.982;2023-03-31T07:33:00;7.93;;;3.65;;
71046;SDS011;58703;48.978;8.982;2023-03-31T07:35:26;10.02;;;3.92;;
71046;SDS011;58703;48.978;8.982;2023-03-31T07:37:54;10.85;;;4.05;;
71046;SDS011;58703;48.978;8.982;2023-03-31T07:40:25;6.47;;;3.87;;
71046;SDS011;58703;48.978;8.982;2023-03-31T07:42:54;7.95;;;4.60;;
71046;SDS011;58703;48.978;8.982;2023-03-31T07:45:22;5.78;;;3.50;;
71046;SDS011;58703;48.978;8.982;2023-03-31T07:47:50;6.90;;;3.75;;
71046;SDS011;58703;48.978;8.982;2023-03-31T07:50:17;7.35;;;3.67;;
71046;SDS011;58703;48.978;8.982;2023-03-31T07:52:45;8.87;;;3.73;;
71046;SDS011;58703;48.978;8.982;2023-03-31T07:55:13;4.78;;;3.50;;
71046;SDS011;58703;48.978;8.982;2023-03-31T07:57:41;6.22;;;3.70;;
71046;SDS011;58703;48.978;8.982;2023-03-31T08:00:09;9.68;;;5.07;;
71046;SDS011;58703;48.978;8.982;2023-03-31T08:02:38;5.63;;;3.47;;
71046;SDS011;58703;48.978;8.982;2023-03-31T08:05:09;5.43;;;3.10;;
71046;SDS011;58703;48.978;8.982;2023-03-31T08:07:39;6.88;;;4.03;;
71046;SDS011;58703;48.978;8.982;2023-03-31T08:10:09;15.27;;;6.10;;
71046;SDS011;58703;48.978;8.982;2023-03-31T08:12:38;8.48;;;3.50;;
71046;SDS011;58703;48.978;8.982;2023-03-31T08:15:06;2.45;;;1.23;;
71046;SDS011;58703;48.978;8.982;2023-03-31T08:17:33;4.83;;;1.33;;
71046;SDS011;58703;48.978;8.982;2023-03-31T08:20:00;4.13;;;0.90;;
71046;SDS011;58703;48.978;8.982;2023-03-31T08:22:27;1.63;;;1.42;;
71046;SDS011;58703;48.978;8.982;2023-03-31T08:24:53;1.88;;;0.85;;
71046;SDS011;58703;48.978;8.982;2023-03-31T08:27:21;3.00;;;1.27;;
71046;SDS011;58703;48.978;8.982;2023-03-31T08:29:47;3.87;;;1.00;;
71046;SDS011;58703;48.978;8.982;2023-03-31T08:32:15;4.00;;;0.90;;
71046;SDS011;58703;48.978;8.982;2023-03-31T08:34:41;4.10;;;0.93;;
71046;SDS011;58703;48.978;8.982;2023-03-31T08:37:08;5.15;;;1.25;;
71046;SDS011;58703;48.978;8.982;2023-03-31T08:39:36;4.97;;;1.33;;
71046;SDS011;58703;48.978;8.982;2023-03-31T08:42:07;7.57;;;1.33;;
71046;SDS011;58703;48.978;8.982;2023-03-31T08:44:41;3.58;;;1.05;;
71046;SDS011;58703;48.978;8.982;2023-03-31T08:47:15;4.05;;;0.82;;
71046;SDS011;58703;48.978;8.982;2023-03-31T08:49:49;5.28;;;1.25;;
71046;SDS011;58703;48.978;8.982;2023-03-31T08:52:30;6.18;;;1.85;;
71046;SDS011;58703;48.978;8.982;2023-03-31T08:55:02;4.27;;;1.73;;
71046;SDS011;58703;48.978;8.982;2023-03-31T08:57:53;4.80;;;1.73;;
71046;SDS011;58703;48.978;8.982;2023-03-31T09:00:49;6.30;;;1.15;;
71046;SDS011;58703;48.978;8.982;2023-03-31T09:03:34;3.20;;;1.15;;
71046;SDS011;58703;48.978;8.982;2023-03-31T09:06:13;4.80;;;1.30;;
71046;SDS011;58703;48.978;8.982;2023-03-31T09:08:47;2.43;;;0.97;;
71046;SDS011;58703;48.978;8.982;2023-03-31T09:25:52;3.80;;;1.23;;
71046;SDS011;58703;48.978;8.982;2023-03-31T09:28:22;4.35;;;0.75;;
71046;SDS011;58703;48.978;8.982;2023-03-31T09:30:55;3.63;;;0.75;;
71046;SDS011;58703;48.978;8.982;2023-03-31T09:33:29;3.70;;;0.73;;
71046;SDS011;58703;48.978;8.982;2023-03-31T09:36:00;4.43;;;1.30;;
71046;SDS011;58703;48.978;8.982;2023-03-31T09:38:29;5.00;;;1.25;;
71046;SDS011;58703;48.978;8.982;2023-03-31T09:40:56;6.35;;;2.20;;
71046;SDS011;58703;48.978;8.982;2023-03-31T09:43:26;6.13;;;1.42;;
71046;SDS011;58703;48.978;8.982;2023-03-31T09:45:54;7.25;;;1.30;;
71046;SDS011;58703;48.978;8.982;2023-03-31T09:48:23;5.80;;;1.13;;
71046;SDS011;58703;48.978;8.982;2023-03-31T09:51:03;4.53;;;1.08;;
71046;SDS011;58703;48.978;8.982;2023-03-31T09:53:42;7.72;;;2.45;;
71046;SDS011;58703;48.978;8.982;2023-03-31T09:56:20;6.70;;;1.27;;
71046;SDS011;58703;48.978;8.982;2023-03-31T09:59:20;6.68;;;1.25;;
71046;SDS011;58703;48.978;8.982;2023-03-31T10:01:52;4.60;;;2.00;;
71046;SDS011;58703;48.978;8.982;2023-03-31T10:04:26;6.28;;;1.02;;
71046;SDS011;58703;48.978;8.982;2023-03-31T10:06:55;3.63;;;1.00;;
71046;SDS011;58703;48.978;8.982;2023-03-31T10:09:29;8.35;;;3.70;;
71046;SDS011;58703;48.978;8.982;2023-03-31T10:11:58;6.25;;;3.50;;
71046;SDS011;58703;48.978;8.982;2023-03-31T10:14:50;4.80;;;1.13;;
71046;SDS011;58703;48.978;8.982;2023-03-31T10:17:22;11.15;;;1.27;;
71046;SDS011;58703;48.978;8.982;2023-03-31T10:19:51;7.55;;;1.33;;
71046;SDS011;58703;48.978;8.982;2023-03-31T10:22:26;4.57;;;1.45;;
71046;SDS011;58703;48.978;8.982;2023-03-31T10:24:53;4.93;;;1.05;;
71046;SDS011;58703;48.978;8.982;2023-03-31T10:27:27;4.73;;;1.10;;
71046;SDS011;58703;48.978;8.982;2023-03-31T10:29:59;5.57;;;1.25;;
71046;SDS011;58703;48.978;8.982;2023-03-31T10:32:31;4.72;;;1.50;;
71046;SDS011;58703;48.978;8.982;2023-03-31T10:35:07;9.10;;;8.13;;
71046;SDS011;58703;48.978;8.982;2023-03-31T10:37:46;3.65;;;1.05;;
71046;SDS011;58703;48.978;8.982;2023-03-31T10:40:24;4.97;;;1.03;;
71046;SDS011;58703;48.978;8.982;2023-03-31T10:43:04;5.55;;;1.00;;
71046;SDS011;58703;48.978;8.982;2023-03-31T10:45:56;2.97;;;0.73;;
71046;SDS011;58703;48.978;8.982;2023-03-31T10:48:34;2.97;;;0.70;;
71046;SDS011;58703;48.978;8.982;2023-03-31T10:51:18;8.63;;;1.33;;
71046;SDS011;58703;48.978;8.982;2023-03-31T10:53:55;4.87;;;1.00;;
71046;SDS011;58703;48.978;8.982;2023-03-31T10:56:45;3.25;;;0.93;;
71046;SDS011;58703;48.978;8.982;2023-03-31T11:00:02;5.45;;;0.82;;
71046;SDS011;58703;48.978;8.982;2023-03-31T11:10:46;4.32;;;1.20;;
71046;SDS011;58703;48.978;8.982;2023-03-31T11:13:27;3.60;;;0.45;;
71046;SDS011;58703;48.978;8.982;2023-03-31T11:22:21;1.47;;;0.83;;
71046;SDS011;58703;48.978;8.982;2023-03-31T11:25:27;1.17;;;0.45;;
71046;SDS011;58703;48.978;8.982;2023-03-31T11:31:12;1.27;;;0.40;;
71046;SDS011;58703;48.978;8.982;2023-03-31T11:37:05;1.87;;;0.47;;
71046;SDS011;58703;48.978;8.982;2023-03-31T11:42:14;1.55;;;0.32;;
71046;SDS011;58703;48.978;8.982;2023-03-31T11:45:04;0.65;;;0.28;;
71046;SDS011;58703;48.978;8.982;2023-03-31T11:47:51;2.08;;;0.30;;
71046;SDS011;58703;48.978;8.982;2023-03-31T11:50:28;1.90;;;0.53;;
71046;SDS011;58703;48.978;8.982;2023-03-31T11:56:02;0.15;;;0.05;;
71046;SDS011;58703;48.978;8.982;2023-03-31T11:58:37;0.30;;;0.30;;
71046;SDS011;58703;48.978;8.982;2023-03-31T12:04:04;1.73;;;0.37;;
71046;SDS011;58703;48.978;8.982;2023-03-31T12:06:39;0.43;;;0.40;;
71046;SDS011;58703;48.978;8.982;2023-03-31T12:12:15;0.75;;;0.50;;
71046;SDS011;58703;48.978;8.982;2023-03-31T12:14:47;1.50;;;0.52;;
71046;SDS011;58703;48.978;8.982;2023-03-31T12:17:27;3.73;;;0.50;;
71046;SDS011;58703;48.978;8.982;2023-03-31T12:20:01;2.40;;;0.77;;
71046;SDS011;58703;48.978;8.982;2023-03-31T12:22:36;2.63;;;0.82;;
71046;SDS011;58703;48.978;8.982;2023-03-31T12:25:12;3.45;;;0.60;;
71046;SDS011;58703;48.978;8.982;2023-03-31T12:27:43;3.10;;;0.45;;
71046;SDS011;58703;48.978;8.982;2023-03-31T12:32:51;3.83;;;1.10;;
71046;SDS011;58703;48.978;8.982;2023-03-31T12:35:32;3.35;;;0.70;;
71046;SDS011;58703;48.978;8.982;2023-03-31T12:41:43;3.47;;;1.00;;
71046;SDS011;58703;48.978;8.982;2023-03-31T12:44:34;3.63;;;0.63;;
71046;SDS011;58703;48.978;8.982;2023-03-31T12:56:21;3.80;;;0.50;;
71046;SDS011;58703;48.978;8.982;2023-03-31T12:58:48;3.10;;;0.40;;
71046;SDS011;58703;48.978;8.982;2023-03-31T13:01:21;3.58;;;0.60;;
71046;SDS011;58703;48.978;8.982;2023-03-31T13:04:21;5.78;;;0.80;;
71046;SDS011;58703;48.978;8.982;2023-03-31T13:06:53;5.32;;;0.68;;
71046;SDS011;58703;48.978;8.982;2023-03-31T13:12:16;2.47;;;0.53;;
71046;SDS011;58703;48.978;8.982;2023-03-31T13:14:47;4.22;;;0.82;;
71046;SDS011;58703;48.978;8.982;2023-03-31T13:17:26;1.35;;;0.47;;
71046;SDS011;58703;48.978;8.982;2023-03-31T13:23:00;3.72;;;0.80;;
71046;SDS011;58703;48.978;8.982;2023-03-31T13:31:08;1.27;;;0.40;;
71046;SDS011;58703;48.978;8.982;2023-03-31T13:39:24;2.10;;;0.50;;
71046;SDS011;58703;48.978;8.982;2023-03-31T14:08:45;2.93;;;0.80;;
71046;SDS011;58703;48.978;8.982;2023-03-31T14:11:31;1.77;;;0.47;;
71046;SDS011;58703;48.978;8.982;2023-03-31T14:14:19;2.33;;;0.70;;
71046;SDS011;58703;48.978;8.982;2023-03-31T14:16:48;3.40;;;0.60;;
71046;SDS011;58703;48.978;8.982;2023-03-31T14:37:10;3.17;;;0.70;;
71046;SDS011;58703;48.978;8.982;2023-03-31T14:39:42;3.35;;;0.70;;
71046;SDS011;58703;48.978;8.982;2023-03-31T14:42:12;3.33;;;0.50;;
71046;SDS011;58703;48.978;8.982;2023-03-31T14:44:56;3.33;;;0.65;;
71046;SDS011;58703;48.978;8.982;2023-03-31T14:47:27;2.78;;;0.77;;
71046;SDS011;58703;48.978;8.982;2023-03-31T14:50:03;2.87;;;0.47;;
71046;SDS011;58703;48.978;8.982;2023-03-31T14:52:39;3.55;;;0.50;;
71046;SDS011;58703;48.978;8.982;2023-03-31T14:55:13;2.65;;;0.57;;
71046;SDS011;58703;48.978;8.982;2023-03-31T14:57:41;1.48;;;0.40;;
71046;SDS011;58703;48.978;8.982;2023-03-31T15:00:13;3.60;;;1.30;;
71046;SDS011;58703;48.978;8.982;2023-03-31T15:02:45;1.03;;;0.43;;
71046;SDS011;58703;48.978;8.982;2023-03-31T15:07:59;3.42;;;0.63;;
71046;SDS011;58703;48.978;8.982;2023-03-31T15:10:35;1.58;;;0.40;;
71046;SDS011;58703;48.978;8.982;2023-03-31T15:13:37;0.95;;;0.40;;
71046;SDS011;58703;48.978;8.982;2023-03-31T15:19:13;4.13;;;0.43;;
71046;SDS011;58703;48.978;8.982;2023-03-31T15:21:43;2.25;;;0.40;;
71046;SDS011;58703;48.978;8.982;2023-03-31T15:24:10;2.17;;;0.65;;
71046;SDS011;58703;48.978;8.982;2023-03-31T15:26:40;2.95;;;0.60;;
71046;SDS011;58703;48.978;8.982;2023-03-31T15:29:34;2.83;;;0.70;;
71046;SDS011;58703;48.978;8.982;2023-03-31T15:32:26;1.67;;;0.40;;
71046;SDS011;58703;48.978;8.982;2023-03-31T15:34:56;2.15;;;0.50;;
71046;SDS011;58703;48.978;8.982;2023-03-31T15:37:29;1.42;;;0.30;;
71046;SDS011;58703;48.978;8.982;2023-03-31T15:40:00;3.75;;;0.43;;
71046;SDS011;58703;48.978;8.982;2023-03-31T15:42:33;2.07;;;0.43;;
71046;SDS011;58703;48.978;8.982;2023-03-31T15:48:08;2.67;;;0.43;;
71046;SDS011;58703;48.978;8.982;2023-03-31T15:51:13;0.68;;;0.50;;
71046;SDS011;58703;48.978;8.982;2023-03-31T15:54:02;3.70;;;0.80;;
71046;SDS011;58703;48.978;8.982;2023-03-31T15:59:12;2.88;;;0.50;;
71046;SDS011;58703;48.978;8.982;2023-03-31T16:01:48;3.38;;;0.70;;
71046;SDS011;58703;48.978;8.982;2023-03-31T16:04:17;0.75;;;0.30;;
71046;SDS011;58703;48.978;8.982;2023-03-31T16:07:03;2.75;;;0.50;;
71046;SDS011;58703;48.978;8.982;2023-03-31T16:09:38;3.00;;;0.60;;
71046;SDS011;58703;48.978;8.982;2023-03-31T16:12:19;3.53;;;0.63;;
71046;SDS011;58703;48.978;8.982;2023-03-31T16:15:04;1.98;;;0.60;;
71046;SDS011;58703;48.978;8.982;2023-03-31T16:17:51;3.22;;;0.50;;
71046;SDS011;58703;48.978;8.982;2023-03-31T16:20:22;3.47;;;0.80;;
71046;SDS011;58703;48.978;8.982;2023-03-31T16:22:57;2.63;;;0.63;;
71046;SDS011;58703;48.978;8.982;2023-03-31T16:25:25;2.08;;;0.45;;
71046;SDS011;58703;48.978;8.982;2023-03-31T16:27:54;1.42;;;0.30;;
71046;SDS011;58703;48.978;8.982;2023-03-31T16:30:38;1.85;;;0.35;;
71046;SDS011;58703;48.978;8.982;2023-03-31T16:33:24;1.17;;;0.30;;
71046;SDS011;58703;48.978;8.982;2023-03-31T16:35:52;2.13;;;0.50;;
71046;SDS011;58703;48.978;8.982;2023-03-31T16:38:22;1.42;;;0.32;;
71046;SDS011;58703;48.978;8.982;2023-03-31T16:40:51;2.63;;;0.40;;
71046;SDS011;58703;48.978;8.982;2023-03-31T16:43:22;1.85;;;0.55;;
71046;SDS011;58703;48.978;8.982;2023-03-31T16:45:58;1.38;;;0.15;;
71046;SDS011;58703;48.978;8.982;2023-03-31T16:48:27;2.60;;;0.53;;
71046;SDS011;58703;48.978;8.982;2023-03-31T16:50:57;1.80;;;0.63;;
71046;SDS011;58703;48.978;8.982;2023-03-31T16:53:26;1.10;;;0.40;;
71046;SDS011;58703;48.978;8.982;2023-03-31T16:55:59;5.93;;;1.10;;
71046;SDS011;58703;48.978;8.982;2023-03-31T16:58:27;4.50;;;1.92;;
71046;SDS011;58703;48.978;8.982;2023-03-31T17:00:54;1.57;;;0.80;;
71046;SDS011;58703;48.978;8.982;2023-03-31T17:03:22;6.97;;;3.55;;
71046;SDS011;58703;48.978;8.982;2023-03-31T17:05:50;25.90;;;7.50;;
71046;SDS011;58703;48.978;8.982;2023-03-31T17:08:18;15.90;;;6.95;;
71046;SDS011;58703;48.978;8.982;2023-03-31T17:10:51;9.10;;;5.38;;
71046;SDS011;58703;48.978;8.982;2023-03-31T17:13:21;7.23;;;3.20;;
71046;SDS011;58703;48.978;8.982;2023-03-31T17:15:47;7.80;;;3.92;;
71046;SDS011;58703;48.978;8.982;2023-03-31T17:18:15;3.95;;;2.55;;
71046;SDS011;58703;48.978;8.982;2023-03-31T17:20:42;2.90;;;1.55;;
71046;SDS011;58703;48.978;8.982;2023-03-31T17:23:09;5.68;;;4.00;;
71046;SDS011;58703;48.978;8.982;2023-03-31T17:25:36;8.43;;;2.40;;
71046;SDS011;58703;48.978;8.982;2023-03-31T17:28:03;7.45;;;4.28;;
71046;SDS011;58703;48.978;8.982;2023-03-31T17:30:31;7.35;;;3.63;;
71046;SDS011;58703;48.978;8.982;2023-03-31T17:33:01;13.65;;;8.13;;
71046;SDS011;58703;48.978;8.982;2023-03-31T17:35:29;10.82;;;7.28;;
71046;SDS011;58703;48.978;8.982;2023-03-31T17:37:56;4.00;;;2.40;;
71046;SDS011;58703;48.978;8.982;2023-03-31T17:40:23;3.63;;;0.95;;
71046;SDS011;58703;48.978;8.982;2023-03-31T17:42:50;3.47;;;0.50;;
71046;SDS011;58703;48.978;8.982;2023-03-31T17:45:16;1.55;;;0.60;;
71046;SDS011;58703;48.978;8.982;2023-03-31T17:47:42;5.07;;;0.60;;
71046;SDS011;58703;48.978;8.982;2023-03-31T17:50:10;2.58;;;0.40;;
71046;SDS011;58703;48.978;8.982;2023-03-31T17:52:37;1.58;;;0.50;;
71046;SDS011;58703;48.978;8.982;2023-03-31T17:55:04;1.07;;;0.30;;
71046;SDS011;58703;48.978;8.982;2023-03-31T17:57:30;2.22;;;0.30;;
71046;SDS011;58703;48.978;8.982;2023-03-31T17:59:56;4.05;;;0.50;;
71046;SDS011;58703;48.978;8.982;2023-03-31T18:02:23;14.93;;;4.40;;
71046;SDS011;58703;48.978;8.982;2023-03-31T18:04:49;4.90;;;0.98;;
71046;SDS011;58703;48.978;8.982;2023-03-31T18:07:16;2.63;;;0.73;;
71046;SDS011;58703;48.978;8.982;2023-03-31T18:09:47;1.42;;;0.35;;
71046;SDS011;58703;48.978;8.982;2023-03-31T18:12:13;0.47;;;0.20;;
71046;SDS011;58703;48.978;8.982;2023-03-31T18:14:38;4.67;;;0.50;;
71046;SDS011;58703;48.978;8.982;2023-03-31T18:17:04;3.30;;;1.10;;
71046;SDS011;58703;48.978;8.982;2023-03-31T18:19:30;4.17;;;2.00;;
71046;SDS011;58703;48.978;8.982;2023-03-31T18:21:56;8.85;;;3.75;;